createdAt,value
2022-08-11T00:00:02.469Z,1024.72
2022-08-11T00:05:01.378Z,1024.72
2022-08-11T00:15:01.488Z,1024.63
2022-08-11T00:30:01.427Z,1024.70
2022-08-11T00:40:01.457Z,1024.66
2022-08-11T00:45:01.497Z,1024.66
2022-08-11T00:50:01.313Z,1024.64
2022-08-11T00:55:16.110Z,1024.64
2022-08-11T01:00:04.088Z,1024.73
2022-08-11T01:10:07.573Z,1024.66
2022-08-11T01:15:01.373Z,1024.66
2022-08-11T01:25:02.405Z,1024.55
2022-08-11T01:30:01.320Z,1024.58
2022-08-11T01:35:01.329Z,1024.58
2022-08-11T01:45:01.398Z,1024.52
2022-08-11T01:55:02.409Z,1024.64
2022-08-11T02:00:02.787Z,1024.58
2022-08-11T02:10:01.924Z,1024.48
2022-08-11T02:15:05.838Z,1024.48
2022-08-11T02:25:01.405Z,1024.51
2022-08-11T02:30:01.341Z,1024.51
2022-08-11T02:45:01.140Z,1024.60
2022-08-11T02:55:01.140Z,1024.53
2022-08-11T03:00:01.140Z,1024.58
2022-08-11T03:15:01.157Z,1024.69
2022-08-11T03:25:01.144Z,1024.67
2022-08-11T03:30:01.158Z,1024.71
2022-08-11T03:40:01.381Z,1024.60
2022-08-11T03:45:01.167Z,1024.60
2022-08-11T03:55:01.158Z,1024.61
2022-08-11T04:00:01.156Z,1024.60
2022-08-11T04:15:01.170Z,1024.67
2022-08-11T04:30:05.870Z,1024.52
2022-08-11T04:40:01.169Z,1024.59
2022-08-11T04:45:01.174Z,1024.59
2022-08-11T04:50:01.169Z,1024.59
2022-08-11T04:55:01.172Z,1024.59
2022-08-11T05:00:02.191Z,1024.49
2022-08-11T05:05:01.183Z,1024.49
2022-08-11T05:10:01.165Z,1024.38
2022-08-11T05:15:01.192Z,1024.38
2022-08-11T05:20:01.163Z,1024.51
2022-08-11T05:25:01.566Z,1024.51
2022-08-11T05:30:01.158Z,1024.59
2022-08-11T05:35:01.180Z,1024.59
2022-08-11T05:40:01.499Z,1024.70
2022-08-11T05:45:01.153Z,1024.70
2022-08-11T05:50:01.252Z,1024.65
2022-08-11T05:55:07.560Z,1024.65
2022-08-11T06:00:01.258Z,1024.72
2022-08-11T06:05:01.255Z,1024.72
2022-08-11T06:10:01.196Z,1024.82
2022-08-11T06:15:01.208Z,1024.82
2022-08-11T06:20:07.785Z,1024.92
2022-08-11T06:25:01.469Z,1024.92
2022-08-11T06:30:01.420Z,1025.25
2022-08-11T06:35:02.569Z,1025.25
2022-08-11T06:40:01.449Z,1025.17
2022-08-11T06:45:01.548Z,1025.17
2022-08-11T06:50:01.548Z,1024.79
2022-08-11T06:55:01.650Z,1024.79
2022-08-11T07:00:02.357Z,1024.54
2022-08-11T07:05:01.556Z,1024.54
2022-08-11T07:10:01.505Z,1024.16
2022-08-11T07:15:01.648Z,1024.16
2022-08-11T07:20:01.465Z,1023.84
2022-08-11T07:25:03.859Z,1023.84
2022-08-11T07:30:01.578Z,1023.73
2022-08-11T07:35:01.568Z,1023.73
2022-08-11T07:40:01.812Z,1023.67
2022-08-11T07:45:01.928Z,1023.67
2022-08-11T07:50:01.727Z,1023.56
2022-08-11T07:55:02.475Z,1023.56
2022-08-11T08:00:05.130Z,1023.42
2022-08-11T08:05:01.764Z,1023.42
2022-08-11T08:10:01.710Z,1023.43
2022-08-11T08:15:01.966Z,1023.43
2022-08-11T08:20:02.620Z,1023.48
2022-08-11T08:25:01.636Z,1023.48
2022-08-11T08:30:01.448Z,1023.44
2022-08-11T08:35:01.513Z,1023.44
2022-08-11T08:40:01.552Z,1023.38
2022-08-11T08:45:07.562Z,1023.38
2022-08-11T08:50:01.553Z,1023.33
2022-08-11T08:55:01.556Z,1023.33
2022-08-11T09:00:04.493Z,1023.31
2022-08-11T09:05:01.577Z,1023.31
2022-08-11T09:10:01.487Z,1023.24
2022-08-11T09:15:01.607Z,1023.24
2022-08-11T09:20:01.777Z,1023.28
2022-08-11T09:25:07.555Z,1023.28
2022-08-11T09:30:01.448Z,1023.14
2022-08-11T09:35:01.711Z,1023.14
2022-08-11T09:40:01.571Z,1023.02
2022-08-11T09:45:02.227Z,1023.02
2022-08-11T09:50:02.270Z,1023.06
2022-08-11T09:55:01.626Z,1023.06
2022-08-11T10:00:14.247Z,1022.98
2022-08-11T10:15:01.598Z,1022.91
2022-08-11T10:25:01.810Z,1022.91
2022-08-11T10:30:01.609Z,1022.75
2022-08-11T10:35:01.598Z,1022.75
2022-08-11T10:40:01.475Z,1022.70
2022-08-11T10:45:01.535Z,1022.70
2022-08-11T10:50:05.527Z,1022.68
2022-08-11T11:00:03.079Z,1022.73
2022-08-11T11:05:16.244Z,1022.73
2022-08-11T11:10:01.615Z,1022.66
2022-08-11T11:15:01.618Z,1022.66
2022-08-11T11:20:01.477Z,1022.60
2022-08-11T11:25:08.119Z,1022.60
2022-08-11T11:30:01.531Z,1022.63
2022-08-11T11:35:01.589Z,1022.63
2022-08-11T11:40:01.472Z,1022.72
2022-08-11T11:45:01.903Z,1022.72
2022-08-11T11:55:01.685Z,1022.63
2022-08-11T12:00:02.299Z,1022.72
2022-08-11T12:10:01.582Z,1022.63
2022-08-11T12:15:01.538Z,1022.63
2022-08-11T12:20:01.926Z,1022.53
2022-08-11T12:25:01.583Z,1022.53
2022-08-11T12:30:01.738Z,1022.49
2022-08-11T12:45:01.378Z,1022.43
2022-08-11T12:55:02.028Z,1022.30
2022-08-11T13:00:02.889Z,1022.23
2022-08-11T13:15:03.331Z,1022.25
2022-08-11T13:26:01.593Z,1022.19
2022-08-11T13:36:02.093Z,1022.12
2022-08-11T13:41:01.575Z,1022.03
2022-08-11T13:51:01.529Z,1021.95
2022-08-11T14:16:01.300Z,1021.72
2022-08-11T14:21:01.593Z,1021.61
2022-08-11T14:26:03.032Z,1021.61
2022-08-11T14:31:02.417Z,1021.55
2022-08-11T14:36:01.771Z,1021.55
2022-08-11T14:51:01.959Z,1021.59
2022-08-11T14:56:01.483Z,1021.59
2022-08-11T15:01:06.728Z,1021.56
2022-08-11T15:16:06.087Z,1021.54
2022-08-11T15:21:01.530Z,1021.39
2022-08-11T15:31:01.303Z,1021.27
2022-08-11T15:36:01.445Z,1021.27
2022-08-11T15:46:01.239Z,1021.22
2022-08-11T16:01:09.407Z,1021.05
2022-08-11T16:16:01.257Z,1021.08
2022-08-11T16:31:01.311Z,1020.89
2022-08-11T16:36:01.265Z,1020.89
2022-08-11T16:41:01.264Z,1020.86
2022-08-11T16:46:01.339Z,1020.86
2022-08-11T16:51:01.654Z,1020.82
2022-08-11T17:01:01.315Z,1020.78
2022-08-11T17:11:04.494Z,1020.74
2022-08-11T17:16:01.593Z,1020.74
2022-08-11T17:21:01.390Z,1020.79
2022-08-11T17:26:04.856Z,1020.79
2022-08-11T17:31:18.565Z,1020.68
2022-08-11T17:36:01.480Z,1020.68
2022-08-11T17:41:01.847Z,1020.67
2022-08-11T17:46:01.456Z,1020.67
2022-08-11T17:51:01.484Z,1020.66
2022-08-11T17:56:02.988Z,1020.66
2022-08-11T18:01:10.116Z,1020.58
2022-08-11T18:06:01.449Z,1020.58
2022-08-11T18:11:01.471Z,1020.50
2022-08-11T18:16:01.706Z,1020.50
2022-08-11T18:22:16.106Z,1020.54
2022-08-11T18:27:01.550Z,1020.54
2022-08-11T18:32:01.712Z,1020.67
2022-08-11T18:37:01.443Z,1020.67
2022-08-11T18:42:01.446Z,1020.81
2022-08-11T18:47:06.163Z,1020.81
2022-08-11T18:52:01.398Z,1020.81
2022-08-11T18:57:01.482Z,1020.81
2022-08-11T19:02:01.519Z,1020.92
2022-08-11T19:07:01.386Z,1020.92
2022-08-11T19:12:01.450Z,1021.00
2022-08-11T19:17:01.431Z,1021.00
2022-08-11T19:22:01.437Z,1021.04
2022-08-11T19:27:02.464Z,1021.04
2022-08-11T19:32:01.512Z,1021.18
2022-08-11T19:37:01.680Z,1021.18
2022-08-11T19:42:01.478Z,1021.34
2022-08-11T19:47:07.193Z,1021.34
2022-08-11T19:52:01.559Z,1021.48
2022-08-11T19:57:01.758Z,1021.48
2022-08-11T20:02:14.907Z,1021.50
2022-08-11T20:07:01.722Z,1021.50
2022-08-11T20:12:01.443Z,1021.46
2022-08-11T20:17:02.609Z,1021.46
2022-08-11T20:22:08.419Z,1021.48
2022-08-11T20:27:02.473Z,1021.48
2022-08-11T20:32:08.406Z,1021.64
2022-08-11T20:37:01.498Z,1021.64
2022-08-11T20:42:01.545Z,1021.62
2022-08-11T20:47:01.812Z,1021.62
2022-08-11T20:52:06.482Z,1021.64
2022-08-11T20:57:01.465Z,1021.64
2022-08-11T21:02:16.661Z,1021.67
2022-08-11T21:07:01.785Z,1021.67
2022-08-11T21:30:01.259Z,1021.92
2022-08-11T21:45:01.308Z,1021.99
2022-08-11T22:00:02.103Z,1022.04
2022-08-11T22:05:15.953Z,1022.04
2022-08-11T22:15:02.034Z,1022.11
2022-08-11T22:20:01.600Z,1022.15
2022-08-11T22:25:01.252Z,1022.15
2022-08-11T22:30:01.127Z,1022.08
2022-08-11T22:45:06.194Z,1022.05
2022-08-11T22:55:01.275Z,1022.06
2022-08-11T23:00:02.677Z,1022.06
2022-08-11T23:05:01.162Z,1022.06
2022-08-11T23:10:01.149Z,1022.15
2022-08-11T23:15:01.195Z,1022.15
2022-08-11T23:25:07.943Z,1022.14
2022-08-11T23:30:01.137Z,1022.16
2022-08-11T23:40:01.282Z,1022.08
2022-08-11T23:45:01.268Z,1022.08
2022-08-11T23:50:02.162Z,1022.15
